createdAt,value
2023-05-09T00:00:37.826Z,53.74
2023-05-09T00:03:06.690Z,51.96
2023-05-09T00:05:35.056Z,53.63
2023-05-09T00:08:03.299Z,52.94
2023-05-09T00:10:31.830Z,52.82
2023-05-09T00:13:00.990Z,51.60
2023-05-09T00:15:31.973Z,51.79
2023-05-09T00:18:00.438Z,52.76
2023-05-09T00:20:28.961Z,53.56
2023-05-09T00:22:57.257Z,54.18
2023-05-09T00:25:26.786Z,53.37
2023-05-09T00:27:56.269Z,52.23
2023-05-09T00:30:24.549Z,52.00
2023-05-09T00:32:54.369Z,50.88
2023-05-09T00:35:22.781Z,51.07
2023-05-09T00:37:51.086Z,51.70
2023-05-09T00:40:19.353Z,51.37
2023-05-09T00:42:47.607Z,52.84
2023-05-09T00:45:16.038Z,52.37
2023-05-09T00:47:44.451Z,52.76
2023-05-09T00:50:14.961Z,53.95
2023-05-09T00:52:43.373Z,53.11
2023-05-09T00:55:11.853Z,53.29
2023-05-09T00:57:40.517Z,52.28
2023-05-09T01:00:13.333Z,51.84
2023-05-09T01:02:42.587Z,52.03
2023-05-09T01:05:11.219Z,53.10
2023-05-09T01:07:45.501Z,52.66
2023-05-09T01:10:20.300Z,53.38
2023-05-09T01:12:51.267Z,53.72
2023-05-09T01:15:24.894Z,51.97
2023-05-09T01:17:56.543Z,50.76
2023-05-09T01:20:33.817Z,51.33
2023-05-09T01:23:19.638Z,51.41
2023-05-09T01:25:57.581Z,51.07
2023-05-09T01:28:40.023Z,50.02
2023-05-09T01:31:10.088Z,50.04
2023-05-09T01:33:40.470Z,50.05
2023-05-09T01:36:13.052Z,49.52
2023-05-09T01:38:43.717Z,49.69
2023-05-09T01:41:12.231Z,49.67
2023-05-09T01:43:41.755Z,52.13
2023-05-09T01:46:11.973Z,52.56
2023-05-09T01:48:41.170Z,52.17
2023-05-09T01:51:10.727Z,51.88
2023-05-09T01:53:39.191Z,53.84
2023-05-09T01:56:09.448Z,54.67
2023-05-09T01:58:38.205Z,53.81
2023-05-09T02:01:07.291Z,52.70
2023-05-09T02:03:38.621Z,52.44
2023-05-09T02:06:07.457Z,50.95
2023-05-09T02:08:35.991Z,50.78
2023-05-09T02:11:04.475Z,53.21
2023-05-09T02:13:32.882Z,53.22
2023-05-09T02:16:01.972Z,54.55
2023-05-09T02:18:32.620Z,54.17
2023-05-09T02:21:02.439Z,54.10
2023-05-09T02:23:30.946Z,57.99
2023-05-09T02:26:00.462Z,53.75
2023-05-09T02:28:30.600Z,52.26
2023-05-09T02:31:00.580Z,51.96
2023-05-09T02:33:33.990Z,51.23
2023-05-09T02:36:05.055Z,51.04
2023-05-09T02:38:33.576Z,50.50
2023-05-09T02:41:01.909Z,51.45
2023-05-09T02:43:30.148Z,50.63
2023-05-09T02:45:58.483Z,51.45
2023-05-09T02:48:26.782Z,54.42
2023-05-09T02:50:59.188Z,52.49
2023-05-09T02:53:30.151Z,51.85
2023-05-09T02:55:59.809Z,50.96
2023-05-09T02:58:28.520Z,49.95
2023-05-09T03:00:56.788Z,50.46
2023-05-09T03:03:25.433Z,50.40
2023-05-09T03:05:53.818Z,51.79
2023-05-09T03:08:22.018Z,50.57
2023-05-09T03:10:51.642Z,52.00
2023-05-09T03:13:19.939Z,52.88
2023-05-09T03:15:48.334Z,50.69
2023-05-09T03:18:16.668Z,49.86
2023-05-09T03:20:44.938Z,50.10
2023-05-09T03:23:13.296Z,49.58
2023-05-09T03:25:41.537Z,50.44
2023-05-09T03:28:11.191Z,50.58
2023-05-09T03:30:39.461Z,49.71
2023-05-09T03:33:08.672Z,49.72
2023-05-09T03:35:36.977Z,50.25
2023-05-09T03:38:05.782Z,51.33
2023-05-09T03:40:34.013Z,52.21
2023-05-09T03:43:02.265Z,52.62
2023-05-09T03:45:31.901Z,52.46
2023-05-09T03:48:00.224Z,51.95
2023-05-09T03:50:28.642Z,52.60
2023-05-09T03:52:57.069Z,52.51
2023-05-09T03:55:25.373Z,52.36
2023-05-09T03:57:53.617Z,50.97
2023-05-09T04:00:22.531Z,51.78
2023-05-09T04:02:52.294Z,53.53
2023-05-09T04:05:21.045Z,54.00
2023-05-09T04:07:49.445Z,51.57
2023-05-09T04:10:17.708Z,50.83
2023-05-09T04:12:46.021Z,51.60
2023-05-09T04:15:14.519Z,50.08
2023-05-09T04:17:42.999Z,50.31
2023-05-09T04:20:13.724Z,49.46
2023-05-09T04:22:41.944Z,45.39
2023-05-09T04:25:13.681Z,43.18
2023-05-09T04:27:42.116Z,42.38
2023-05-09T04:30:11.387Z,44.13
2023-05-09T04:32:39.802Z,44.58
2023-05-09T04:35:09.210Z,44.39
2023-05-09T04:37:38.898Z,43.98
2023-05-09T04:40:09.101Z,42.14
2023-05-09T04:42:37.665Z,43.05
2023-05-09T04:45:07.317Z,42.60
2023-05-09T04:47:35.657Z,41.51
2023-05-09T04:50:04.150Z,39.60
2023-05-09T04:52:32.685Z,39.68
2023-05-09T04:55:02.370Z,41.14
2023-05-09T04:57:30.763Z,40.34
2023-05-09T04:59:59.106Z,39.64
2023-05-09T05:02:27.576Z,39.00
2023-05-09T05:05:17.522Z,39.22
2023-05-09T05:07:44.033Z,39.31
2023-05-09T05:10:13.649Z,39.29
2023-05-09T05:12:41.943Z,40.67
2023-05-09T05:15:11.152Z,40.34
2023-05-09T05:17:39.405Z,39.19
2023-05-09T05:20:10.648Z,40.44
2023-05-09T05:22:39.038Z,38.78
2023-05-09T05:25:08.526Z,39.30
2023-05-09T05:27:38.294Z,40.64
2023-05-09T05:30:07.693Z,39.61
2023-05-09T05:32:36.039Z,41.29
2023-05-09T05:35:04.997Z,39.07
2023-05-09T05:37:33.308Z,40.06
2023-05-09T05:40:01.573Z,40.62
2023-05-09T05:42:29.816Z,41.01
2023-05-09T05:45:04.276Z,41.04
2023-05-09T05:47:33.154Z,41.86
2023-05-09T05:50:02.996Z,43.26
2023-05-09T05:52:32.084Z,42.47
2023-05-09T05:55:00.383Z,43.79
2023-05-09T05:57:28.699Z,45.71
2023-05-09T05:59:57.017Z,46.63
2023-05-09T06:02:26.820Z,44.59
2023-05-09T06:04:59.125Z,48.03
2023-05-09T06:07:29.996Z,45.83
2023-05-09T06:09:58.436Z,46.97
2023-05-09T06:12:28.065Z,46.94
2023-05-09T06:14:57.868Z,48.10
2023-05-09T06:17:31.052Z,46.63
2023-05-09T06:19:59.351Z,43.34
2023-05-09T06:22:27.577Z,43.47
2023-05-09T06:24:55.801Z,43.04
2023-05-09T06:27:24.174Z,43.48
2023-05-09T06:29:52.782Z,43.03
2023-05-09T06:32:21.231Z,44.41
2023-05-09T06:34:51.112Z,45.16
2023-05-09T06:37:19.556Z,44.53
2023-05-09T06:39:47.848Z,45.01
2023-05-09T06:42:16.658Z,43.31
2023-05-09T06:44:44.959Z,43.60
2023-05-09T06:47:13.235Z,43.75
2023-05-09T06:49:41.501Z,44.77
2023-05-09T06:52:12.955Z,44.31
2023-05-09T06:54:52.012Z,43.76
2023-05-09T06:57:23.322Z,42.15
2023-05-09T06:59:51.639Z,42.62
2023-05-09T07:02:19.876Z,43.40
2023-05-09T07:04:48.402Z,41.74
2023-05-09T07:07:18.514Z,42.72
2023-05-09T07:09:46.861Z,42.77
2023-05-09T07:12:15.724Z,42.89
2023-05-09T07:14:43.999Z,43.23
2023-05-09T07:17:21.965Z,41.68
2023-05-09T07:19:51.551Z,43.13
2023-05-09T07:22:21.274Z,41.59
2023-05-09T07:24:50.844Z,41.57
2023-05-09T07:27:19.178Z,40.57
2023-05-09T07:29:49.097Z,40.89
2023-05-09T07:32:17.491Z,41.50
2023-05-09T07:34:45.954Z,40.16
2023-05-09T07:37:15.444Z,40.35
2023-05-09T07:39:47.514Z,39.46
2023-05-09T07:42:16.073Z,39.29
2023-05-09T07:44:44.340Z,39.39
2023-05-09T07:47:12.708Z,38.24
2023-05-09T07:49:43.238Z,39.43
2023-05-09T07:52:11.769Z,40.26
2023-05-09T07:54:40.677Z,39.91
2023-05-09T07:57:10.547Z,37.58
2023-05-09T07:59:38.953Z,39.63
2023-05-09T08:02:07.731Z,38.33
2023-05-09T08:04:37.734Z,37.60
2023-05-09T08:07:07.245Z,37.31
2023-05-09T08:09:35.704Z,36.88
2023-05-09T08:12:04.038Z,38.26
2023-05-09T08:14:33.684Z,38.42
2023-05-09T08:17:02.165Z,39.83
2023-05-09T08:19:30.433Z,39.60
2023-05-09T08:21:58.752Z,38.47
2023-05-09T08:24:27.030Z,38.85
2023-05-09T08:26:55.451Z,39.76
2023-05-09T08:29:23.680Z,38.88
2023-05-09T08:31:53.479Z,38.91
2023-05-09T08:34:21.949Z,37.00
2023-05-09T08:36:50.238Z,39.17
2023-05-09T08:39:19.183Z,38.27
2023-05-09T08:41:47.503Z,38.06
2023-05-09T08:44:15.939Z,37.93
2023-05-09T08:46:49.412Z,38.11
2023-05-09T08:49:19.489Z,37.97
2023-05-09T08:51:50.041Z,36.31
2023-05-09T08:54:19.593Z,37.30
2023-05-09T08:56:48.704Z,34.86
2023-05-09T08:59:18.549Z,36.41
2023-05-09T09:01:47.244Z,37.44
2023-05-09T09:04:15.746Z,35.97
2023-05-09T09:06:45.521Z,36.14
2023-05-09T09:09:15.019Z,35.58
2023-05-09T09:11:43.668Z,35.88
2023-05-09T09:14:14.023Z,36.21
2023-05-09T09:16:45.698Z,35.74
2023-05-09T09:19:18.758Z,35.74
2023-05-09T09:21:53.912Z,35.84
2023-05-09T09:24:27.230Z,37.63
2023-05-09T09:26:55.595Z,37.50
2023-05-09T09:29:24.622Z,36.39
2023-05-09T09:31:55.311Z,36.98
2023-05-09T09:34:24.600Z,37.26
2023-05-09T09:36:54.286Z,36.87
2023-05-09T09:39:23.140Z,35.73
2023-05-09T09:41:51.550Z,35.93
2023-05-09T09:44:21.077Z,36.74
2023-05-09T09:46:51.289Z,37.96
2023-05-09T09:49:21.305Z,38.35
2023-05-09T09:51:55.722Z,36.58
2023-05-09T09:54:27.198Z,37.39
2023-05-09T09:56:56.656Z,38.69
2023-05-09T09:59:26.059Z,38.56
2023-05-09T10:01:56.376Z,35.33
2023-05-09T10:04:25.195Z,37.06
2023-05-09T10:06:55.760Z,37.23
2023-05-09T10:09:24.720Z,37.20
2023-05-09T10:11:54.042Z,37.28
2023-05-09T10:14:23.473Z,36.67
2023-05-09T10:16:53.711Z,36.66
2023-05-09T10:19:23.303Z,35.10
2023-05-09T10:21:53.787Z,35.80
2023-05-09T10:24:28.953Z,37.10
2023-05-09T10:27:01.603Z,36.00
2023-05-09T10:29:31.935Z,34.71
2023-05-09T10:32:02.700Z,35.29
2023-05-09T10:34:33.114Z,35.82
2023-05-09T10:37:01.520Z,35.65
2023-05-09T10:39:31.933Z,36.38
2023-05-09T10:42:00.709Z,35.51
2023-05-09T10:44:29.458Z,36.47
2023-05-09T10:46:58.013Z,36.59
2023-05-09T10:49:26.790Z,36.40
2023-05-09T10:51:55.092Z,35.63
2023-05-09T10:54:33.473Z,34.71
2023-05-09T10:57:01.856Z,35.97
2023-05-09T10:59:37.890Z,34.69
2023-05-09T11:02:06.963Z,34.65
2023-05-09T11:04:35.368Z,34.77
2023-05-09T11:07:03.670Z,34.62
2023-05-09T11:09:35.662Z,33.72
2023-05-09T11:12:11.904Z,34.55
2023-05-09T11:14:42.939Z,34.34
2023-05-09T11:17:12.953Z,34.79
2023-05-09T11:20:01.632Z,33.97
2023-05-09T11:22:32.601Z,34.21
2023-05-09T11:25:07.255Z,33.89
2023-05-09T11:27:41.236Z,34.02
2023-05-09T11:30:11.057Z,34.95
2023-05-09T11:33:07.836Z,33.66
2023-05-09T11:35:39.432Z,35.59
2023-05-09T11:38:08.258Z,35.67
2023-05-09T11:40:38.336Z,36.26
2023-05-09T11:43:09.252Z,35.04
2023-05-09T11:45:37.637Z,34.33
2023-05-09T11:48:09.894Z,34.97
2023-05-09T11:50:38.258Z,34.61
2023-05-09T11:53:08.314Z,35.04
2023-05-09T11:55:39.096Z,36.17
2023-05-09T11:58:09.053Z,34.66
2023-05-09T12:00:37.513Z,35.87
2023-05-09T12:03:06.614Z,34.03
2023-05-09T12:05:35.098Z,31.59
2023-05-09T12:08:04.623Z,34.51
2023-05-09T12:10:33.254Z,33.15
2023-05-09T12:13:04.108Z,33.00
2023-05-09T12:15:37.781Z,31.65
2023-05-09T12:18:08.089Z,31.06
2023-05-09T12:20:43.730Z,32.26
2023-05-09T12:23:12.706Z,32.59
2023-05-09T12:25:41.157Z,32.54
2023-05-09T12:28:10.962Z,33.25
2023-05-09T12:30:39.260Z,32.89
2023-05-09T12:33:10.385Z,32.70
2023-05-09T12:35:39.453Z,31.53
2023-05-09T12:38:07.755Z,33.50
2023-05-09T12:40:36.037Z,32.85
2023-05-09T12:43:05.967Z,32.20
2023-05-09T12:45:35.803Z,31.09
2023-05-09T12:48:05.183Z,30.35
2023-05-09T12:50:35.848Z,31.88
2023-05-09T12:53:05.290Z,30.03
2023-05-09T12:55:40.254Z,31.96
2023-05-09T12:58:08.487Z,31.44
2023-05-09T13:00:45.222Z,31.08
2023-05-09T13:03:25.412Z,30.80
2023-05-09T13:06:00.198Z,31.59
2023-05-09T13:08:29.346Z,30.71
2023-05-09T13:11:11.849Z,31.88
2023-05-09T13:13:43.683Z,30.49
2023-05-09T13:16:15.052Z,30.47
2023-05-09T13:18:45.716Z,30.89
2023-05-09T13:21:13.943Z,30.10
2023-05-09T13:23:44.528Z,31.54
2023-05-09T13:26:12.902Z,30.22
2023-05-09T13:28:41.191Z,29.02
2023-05-09T13:31:09.603Z,29.76
2023-05-09T13:33:39.327Z,29.76
2023-05-09T13:36:08.078Z,29.26
2023-05-09T13:38:38.868Z,29.61
2023-05-09T13:41:07.387Z,30.11
2023-05-09T13:43:35.915Z,29.82
2023-05-09T13:46:04.505Z,31.96
2023-05-09T13:48:32.761Z,30.17
2023-05-09T13:51:07.630Z,29.79
2023-05-09T13:53:38.676Z,30.00
2023-05-09T13:56:09.497Z,30.01
2023-05-09T13:58:37.936Z,31.07
2023-05-09T14:01:07.644Z,30.42
2023-05-09T14:03:36.302Z,29.46
2023-05-09T14:06:06.253Z,30.25
2023-05-09T14:08:34.612Z,29.87
2023-05-09T14:11:04.304Z,29.33
2023-05-09T14:13:33.147Z,29.16
2023-05-09T14:16:01.803Z,28.83
2023-05-09T14:18:30.199Z,29.52
2023-05-09T14:20:58.630Z,29.06
2023-05-09T14:23:28.561Z,29.96
2023-05-09T14:25:59.751Z,29.01
2023-05-09T14:28:29.429Z,29.32
2023-05-09T14:30:58.344Z,27.96
2023-05-09T14:33:27.565Z,28.67
2023-05-09T14:35:56.492Z,28.40
2023-05-09T14:38:24.764Z,27.80
2023-05-09T14:40:54.438Z,28.41
2023-05-09T14:43:23.179Z,29.12
2023-05-09T14:45:53.150Z,28.83
2023-05-09T14:48:22.182Z,28.93
2023-05-09T14:50:53.537Z,29.50
2023-05-09T14:53:22.608Z,29.20
2023-05-09T14:55:50.905Z,30.83
2023-05-09T14:58:20.699Z,29.56
2023-05-09T15:00:49.256Z,31.00
2023-05-09T15:03:17.968Z,31.05
2023-05-09T15:05:46.438Z,30.29
2023-05-09T15:08:14.701Z,29.20
2023-05-09T15:10:48.469Z,29.50
2023-05-09T15:13:17.007Z,29.90
2023-05-09T15:15:47.294Z,29.21
2023-05-09T15:18:16.962Z,29.96
2023-05-09T15:20:45.424Z,29.06
2023-05-09T15:23:14.170Z,29.24
2023-05-09T15:25:43.745Z,29.64
2023-05-09T15:28:12.118Z,30.24
2023-05-09T15:30:41.542Z,30.26
2023-05-09T15:33:11.475Z,30.16
2023-05-09T15:35:40.029Z,28.98
2023-05-09T15:38:12.026Z,30.52
2023-05-09T15:40:41.305Z,31.41
2023-05-09T15:43:09.739Z,31.41
2023-05-09T15:45:38.865Z,30.83
2023-05-09T15:48:07.499Z,32.42
2023-05-09T15:50:38.436Z,32.69
2023-05-09T15:53:07.006Z,32.41
2023-05-09T15:55:35.484Z,31.55
2023-05-09T15:58:03.923Z,31.64
2023-05-09T16:00:32.276Z,30.83
2023-05-09T16:03:00.731Z,31.62
2023-05-09T16:05:29.178Z,32.00
2023-05-09T16:07:58.820Z,32.59
2023-05-09T16:10:27.281Z,32.38
2023-05-09T16:12:59.830Z,32.99
2023-05-09T16:15:28.238Z,31.87
2023-05-09T16:17:57.604Z,33.23
2023-05-09T16:20:26.261Z,33.67
2023-05-09T16:22:54.628Z,34.17
2023-05-09T16:25:35.304Z,34.13
2023-05-09T16:28:15.329Z,34.57
2023-05-09T16:30:44.416Z,34.80
2023-05-09T16:33:13.009Z,33.65
2023-05-09T16:35:46.087Z,33.67
2023-05-09T16:38:14.593Z,32.93
2023-05-09T16:40:44.333Z,33.44
2023-05-09T16:43:12.676Z,34.54
2023-05-09T16:45:56.387Z,35.01
2023-05-09T16:48:24.686Z,34.33
2023-05-09T16:50:53.703Z,33.40
2023-05-09T16:53:37.045Z,33.39
2023-05-09T16:56:07.938Z,34.45
2023-05-09T16:58:36.817Z,34.73
2023-05-09T17:01:05.702Z,34.36
2023-05-09T17:03:34.252Z,35.25
2023-05-09T17:06:02.470Z,35.02
2023-05-09T17:08:30.732Z,35.74
2023-05-09T17:10:59.079Z,34.58
2023-05-09T17:13:28.870Z,35.39
2023-05-09T17:15:57.535Z,35.47
2023-05-09T17:18:36.661Z,34.80
2023-05-09T17:21:06.595Z,35.86
2023-05-09T17:23:34.852Z,35.82
2023-05-09T17:26:03.797Z,35.88
2023-05-09T17:28:33.450Z,35.91
2023-05-09T17:31:03.333Z,36.88
2023-05-09T17:33:31.634Z,36.20
2023-05-09T17:36:00.527Z,37.98
2023-05-09T17:38:29.134Z,37.65
2023-05-09T17:40:57.440Z,38.14
2023-05-09T17:43:27.818Z,38.67
2023-05-09T17:45:57.205Z,38.07
2023-05-09T17:48:25.548Z,38.74
2023-05-09T17:50:54.431Z,38.22
2023-05-09T17:53:27.593Z,38.33
2023-05-09T17:55:56.076Z,38.42
2023-05-09T17:58:24.326Z,37.52
2023-05-09T18:00:53.960Z,37.26
2023-05-09T18:03:23.624Z,37.86
2023-05-09T18:05:51.985Z,38.12
2023-05-09T18:08:20.300Z,38.37
2023-05-09T18:10:49.090Z,39.18
2023-05-09T18:13:17.798Z,39.12
2023-05-09T18:15:46.333Z,39.02
2023-05-09T18:18:16.638Z,37.68
2023-05-09T18:20:47.816Z,38.54
2023-05-09T18:23:16.714Z,38.25
2023-05-09T18:25:44.950Z,37.36
2023-05-09T18:28:15.181Z,38.64
2023-05-09T18:30:44.355Z,37.45
2023-05-09T18:33:49.297Z,38.40
2023-05-09T18:36:31.830Z,37.50
2023-05-09T18:39:08.927Z,39.16
2023-05-09T18:41:37.317Z,38.87
2023-05-09T18:44:27.769Z,38.44
2023-05-09T18:46:59.089Z,36.74
2023-05-09T18:49:49.558Z,37.72
2023-05-09T18:52:20.571Z,37.86
2023-05-09T18:54:49.406Z,36.59
2023-05-09T18:57:19.217Z,37.88
2023-05-09T18:59:47.610Z,39.09
2023-05-09T19:02:15.916Z,37.61
2023-05-09T19:04:46.049Z,37.68
2023-05-09T19:07:15.088Z,38.12
2023-05-09T19:09:44.750Z,38.01
2023-05-09T19:12:13.069Z,39.13
2023-05-09T19:14:41.370Z,37.85
2023-05-09T19:17:10.844Z,37.35
2023-05-09T19:19:39.837Z,38.50
2023-05-09T19:22:08.794Z,38.43
2023-05-09T19:24:37.557Z,37.75
2023-05-09T19:27:07.902Z,38.58
2023-05-09T19:29:36.730Z,38.84
2023-05-09T19:32:07.784Z,39.06
2023-05-09T19:34:37.006Z,37.59
2023-05-09T19:37:05.958Z,38.26
2023-05-09T19:39:34.218Z,38.61
2023-05-09T19:42:02.861Z,37.73
2023-05-09T19:44:33.994Z,38.34
2023-05-09T19:47:05.460Z,39.07
2023-05-09T19:49:42.804Z,38.31
2023-05-09T19:52:13.951Z,38.87
2023-05-09T19:54:42.290Z,38.08
2023-05-09T19:57:10.663Z,37.94
2023-05-09T19:59:40.425Z,39.65
2023-05-09T20:02:09.627Z,38.55
2023-05-09T20:04:38.226Z,38.49
2023-05-09T20:07:06.579Z,38.55
2023-05-09T20:09:34.810Z,38.85
2023-05-09T20:12:03.756Z,38.54
2023-05-09T20:14:32.336Z,37.13
2023-05-09T20:17:01.992Z,37.66
2023-05-09T20:19:30.400Z,35.98
2023-05-09T20:21:58.652Z,36.58
2023-05-09T20:24:26.954Z,36.80
2023-05-09T20:26:55.628Z,36.77
2023-05-09T20:29:25.104Z,36.61
2023-05-09T20:31:53.471Z,36.40
2023-05-09T20:34:24.608Z,36.57
2023-05-09T20:36:53.857Z,38.68
2023-05-09T20:39:23.050Z,38.17
2023-05-09T20:41:52.389Z,39.11
2023-05-09T20:44:20.781Z,39.18
2023-05-09T20:46:49.283Z,38.91
2023-05-09T20:49:17.501Z,39.72
2023-05-09T20:51:47.129Z,38.90
2023-05-09T20:54:15.427Z,37.54
2023-05-09T20:56:43.724Z,38.23
2023-05-09T20:59:12.034Z,37.90
2023-05-09T21:01:40.621Z,37.47
2023-05-09T21:04:09.556Z,37.03
2023-05-09T21:06:37.933Z,36.84
2023-05-09T21:09:08.967Z,37.29
2023-05-09T21:11:38.340Z,35.72
2023-05-09T21:14:07.025Z,38.59
2023-05-09T21:16:35.627Z,39.18
2023-05-09T21:19:05.248Z,41.60
2023-05-09T21:21:34.104Z,40.37
2023-05-09T21:24:04.242Z,40.75
2023-05-09T21:26:33.882Z,42.60
2023-05-09T21:29:02.415Z,41.38
2023-05-09T21:31:31.347Z,38.93
2023-05-09T21:34:00.125Z,37.86
2023-05-09T21:36:28.422Z,38.66
2023-05-09T21:38:56.946Z,39.06
2023-05-09T21:41:25.202Z,38.01
2023-05-09T21:43:54.876Z,38.44
2023-05-09T21:46:23.207Z,37.60
2023-05-09T21:48:51.573Z,37.98
2023-05-09T21:51:20.285Z,39.59
2023-05-09T21:53:48.539Z,39.59
2023-05-09T21:56:16.834Z,40.30
2023-05-09T21:58:45.091Z,44.25
2023-05-09T22:01:16.476Z,48.97
2023-05-09T22:03:44.896Z,48.56
2023-05-09T22:06:13.514Z,49.81
2023-05-09T22:08:41.811Z,57.83
2023-05-09T22:11:10.950Z,59.31
2023-05-09T22:13:40.240Z,64.22
2023-05-09T22:16:08.903Z,77.12
2023-05-09T22:18:38.575Z,82.56
2023-05-09T22:21:07.062Z,93.65
2023-05-09T22:23:35.634Z,96.56
2023-05-09T22:26:03.882Z,100.00
2023-05-09T22:28:32.145Z,100.00
2023-05-09T22:31:00.375Z,100.00
2023-05-09T22:33:29.222Z,100.00
2023-05-09T22:35:58.802Z,100.00
2023-05-09T22:38:27.204Z,100.00
2023-05-09T22:40:55.445Z,100.00
2023-05-09T22:43:25.424Z,100.00
2023-05-09T22:45:56.981Z,100.00
2023-05-09T22:48:25.269Z,100.00
2023-05-09T22:50:53.657Z,100.00
2023-05-09T22:53:23.366Z,100.00
2023-05-09T22:55:52.561Z,100.00
2023-05-09T22:58:20.780Z,100.00
2023-05-09T23:00:49.048Z,100.00
2023-05-09T23:03:32.281Z,100.00
2023-05-09T23:06:00.830Z,100.00
2023-05-09T23:08:30.481Z,100.00
2023-05-09T23:10:58.764Z,100.00
2023-05-09T23:13:27.118Z,100.00
2023-05-09T23:15:55.477Z,100.00
2023-05-09T23:18:23.873Z,100.00
2023-05-09T23:20:52.230Z,100.00
2023-05-09T23:23:20.541Z,100.00
2023-05-09T23:25:50.177Z,100.00
2023-05-09T23:28:20.164Z,100.00
2023-05-09T23:30:48.445Z,100.00
2023-05-09T23:33:16.792Z,100.00
2023-05-09T23:35:45.032Z,100.00
2023-05-09T23:38:13.336Z,100.00
2023-05-09T23:40:41.615Z,100.00
2023-05-09T23:43:11.220Z,100.00
2023-05-09T23:45:41.049Z,100.00
2023-05-09T23:48:09.594Z,100.00
2023-05-09T23:50:45.550Z,100.00
2023-05-09T23:53:15.318Z,100.00
2023-05-09T23:55:43.624Z,100.00
2023-05-09T23:58:13.451Z,100.00
